sensor_id;sensor_type;location;lat;lon;timestamp;P1;durP1;ratioP1;P2;durP2;ratioP2
52946;SDS011;45776;40.400;17.260;2022-11-03T00:01:48;14.43;;;3.40;;
52946;SDS011;45776;40.400;17.260;2022-11-03T00:04:20;10.20;;;3.00;;
52946;SDS011;45776;40.400;17.260;2022-11-03T00:06:50;9.30;;;3.33;;
52946;SDS011;45776;40.400;17.260;2022-11-03T00:09:18;5.97;;;3.25;;
52946;SDS011;45776;40.400;17.260;2022-11-03T00:11:46;11.80;;;3.42;;
52946;SDS011;45776;40.400;17.260;2022-11-03T00:14:14;7.70;;;3.42;;
52946;SDS011;45776;40.400;17.260;2022-11-03T00:16:40;9.07;;;3.20;;
52946;SDS011;45776;40.400;17.260;2022-11-03T00:19:06;13.13;;;3.72;;
52946;SDS011;45776;40.400;17.260;2022-11-03T00:21:33;8.95;;;3.58;;
52946;SDS011;45776;40.400;17.260;2022-11-03T00:23:58;10.30;;;3.28;;
52946;SDS011;45776;40.400;17.260;2022-11-03T00:26:27;11.60;;;2.95;;
52946;SDS011;45776;40.400;17.260;2022-11-03T00:28:55;8.10;;;3.38;;
52946;SDS011;45776;40.400;17.260;2022-11-03T00:31:23;8.90;;;3.65;;
52946;SDS011;45776;40.400;17.260;2022-11-03T00:33:50;7.35;;;3.22;;
52946;SDS011;45776;40.400;17.260;2022-11-03T00:36:18;10.05;;;3.35;;
52946;SDS011;45776;40.400;17.260;2022-11-03T00:38:53;10.48;;;3.33;;
52946;SDS011;45776;40.400;17.260;2022-11-03T00:41:19;7.43;;;3.75;;
52946;SDS011;45776;40.400;17.260;2022-11-03T00:43:46;9.57;;;3.90;;
52946;SDS011;45776;40.400;17.260;2022-11-03T00:46:13;9.63;;;3.90;;
52946;SDS011;45776;40.400;17.260;2022-11-03T00:48:40;10.77;;;4.15;;
52946;SDS011;45776;40.400;17.260;2022-11-03T00:51:10;10.07;;;4.20;;
52946;SDS011;45776;40.400;17.260;2022-11-03T00:53:42;9.13;;;4.70;;
52946;SDS011;45776;40.400;17.260;2022-11-03T00:56:19;8.50;;;3.55;;
52946;SDS011;45776;40.400;17.260;2022-11-03T00:58:47;8.15;;;3.33;;
52946;SDS011;45776;40.400;17.260;2022-11-03T01:01:15;6.43;;;3.35;;
52946;SDS011;45776;40.400;17.260;2022-11-03T01:03:43;9.82;;;3.70;;
52946;SDS011;45776;40.400;17.260;2022-11-03T01:06:30;8.63;;;3.50;;
52946;SDS011;45776;40.400;17.260;2022-11-03T01:09:36;11.65;;;3.90;;
52946;SDS011;45776;40.400;17.260;2022-11-03T01:12:06;7.80;;;3.20;;
52946;SDS011;45776;40.400;17.260;2022-11-03T01:17:03;9.13;;;3.60;;
52946;SDS011;45776;40.400;17.260;2022-11-03T01:19:30;11.45;;;3.85;;
52946;SDS011;45776;40.400;17.260;2022-11-03T01:21:56;7.47;;;2.97;;
52946;SDS011;45776;40.400;17.260;2022-11-03T01:24:21;8.93;;;3.35;;
52946;SDS011;45776;40.400;17.260;2022-11-03T01:26:47;8.70;;;2.88;;
52946;SDS011;45776;40.400;17.260;2022-11-03T01:29:12;9.07;;;3.25;;
52946;SDS011;45776;40.400;17.260;2022-11-03T01:31:38;10.48;;;2.78;;
52946;SDS011;45776;40.400;17.260;2022-11-03T01:34:04;11.73;;;3.20;;
52946;SDS011;45776;40.400;17.260;2022-11-03T01:36:29;8.63;;;3.20;;
52946;SDS011;45776;40.400;17.260;2022-11-03T01:38:55;9.25;;;3.58;;
52946;SDS011;45776;40.400;17.260;2022-11-03T01:41:22;6.10;;;2.95;;
52946;SDS011;45776;40.400;17.260;2022-11-03T01:43:51;8.70;;;2.88;;
52946;SDS011;45776;40.400;17.260;2022-11-03T01:46:40;10.65;;;3.75;;
52946;SDS011;45776;40.400;17.260;2022-11-03T01:51:54;8.85;;;3.20;;
52946;SDS011;45776;40.400;17.260;2022-11-03T01:54:26;8.48;;;3.17;;
52946;SDS011;45776;40.400;17.260;2022-11-03T01:56:54;8.38;;;3.47;;
52946;SDS011;45776;40.400;17.260;2022-11-03T01:59:21;7.35;;;2.95;;
52946;SDS011;45776;40.400;17.260;2022-11-03T02:01:48;6.80;;;3.80;;
52946;SDS011;45776;40.400;17.260;2022-11-03T02:04:18;11.98;;;3.33;;
52946;SDS011;45776;40.400;17.260;2022-11-03T02:06:48;9.48;;;3.30;;
52946;SDS011;45776;40.400;17.260;2022-11-03T02:09:23;7.05;;;3.03;;
52946;SDS011;45776;40.400;17.260;2022-11-03T02:11:49;8.35;;;3.10;;
52946;SDS011;45776;40.400;17.260;2022-11-03T02:14:32;5.85;;;2.58;;
52946;SDS011;45776;40.400;17.260;2022-11-03T02:17:04;4.97;;;2.80;;
52946;SDS011;45776;40.400;17.260;2022-11-03T02:28:07;8.00;;;3.10;;
52946;SDS011;45776;40.400;17.260;2022-11-03T02:30:38;7.20;;;3.30;;
52946;SDS011;45776;40.400;17.260;2022-11-03T02:36:02;8.70;;;3.15;;
52946;SDS011;45776;40.400;17.260;2022-11-03T02:38:37;7.78;;;3.13;;
52946;SDS011;45776;40.400;17.260;2022-11-03T02:41:10;7.82;;;3.30;;
52946;SDS011;45776;40.400;17.260;2022-11-03T02:43:39;7.35;;;3.22;;
52946;SDS011;45776;40.400;17.260;2022-11-03T02:46:05;5.60;;;3.30;;
52946;SDS011;45776;40.400;17.260;2022-11-03T02:48:33;8.70;;;3.30;;
52946;SDS011;45776;40.400;17.260;2022-11-03T02:50:58;7.95;;;3.17;;
52946;SDS011;45776;40.400;17.260;2022-11-03T02:53:24;8.00;;;2.65;;
52946;SDS011;45776;40.400;17.260;2022-11-03T02:58:23;10.15;;;2.97;;
52946;SDS011;45776;40.400;17.260;2022-11-03T03:03:26;9.45;;;3.58;;
52946;SDS011;45776;40.400;17.260;2022-11-03T03:05:57;6.57;;;3.42;;
52946;SDS011;45776;40.400;17.260;2022-11-03T03:08:27;11.27;;;3.30;;
52946;SDS011;45776;40.400;17.260;2022-11-03T03:10:54;7.47;;;2.78;;
52946;SDS011;45776;40.400;17.260;2022-11-03T03:13:23;9.10;;;3.22;;
52946;SDS011;45776;40.400;17.260;2022-11-03T03:15:54;8.25;;;3.17;;
52946;SDS011;45776;40.400;17.260;2022-11-03T03:18:48;10.07;;;2.88;;
52946;SDS011;45776;40.400;17.260;2022-11-03T03:21:24;7.45;;;3.33;;
52946;SDS011;45776;40.400;17.260;2022-11-03T03:23:57;11.00;;;3.72;;
52946;SDS011;45776;40.400;17.260;2022-11-03T03:26:36;7.88;;;3.47;;
52946;SDS011;45776;40.400;17.260;2022-11-03T03:32:10;10.95;;;3.47;;
52946;SDS011;45776;40.400;17.260;2022-11-03T03:34:40;13.15;;;4.18;;
52946;SDS011;45776;40.400;17.260;2022-11-03T03:37:07;8.15;;;4.00;;
52946;SDS011;45776;40.400;17.260;2022-11-03T03:39:36;8.00;;;3.60;;
52946;SDS011;45776;40.400;17.260;2022-11-03T03:42:05;7.82;;;3.60;;
52946;SDS011;45776;40.400;17.260;2022-11-03T03:44:34;10.13;;;4.00;;
52946;SDS011;45776;40.400;17.260;2022-11-03T03:47:05;8.50;;;4.60;;
52946;SDS011;45776;40.400;17.260;2022-11-03T03:49:37;8.65;;;3.47;;
52946;SDS011;45776;40.400;17.260;2022-11-03T03:52:03;10.23;;;4.30;;
52946;SDS011;45776;40.400;17.260;2022-11-03T03:54:29;11.88;;;3.80;;
52946;SDS011;45776;40.400;17.260;2022-11-03T03:57:01;6.85;;;3.45;;
52946;SDS011;45776;40.400;17.260;2022-11-03T03:59:28;11.95;;;3.15;;
52946;SDS011;45776;40.400;17.260;2022-11-03T04:01:54;8.45;;;3.38;;
52946;SDS011;45776;40.400;17.260;2022-11-03T04:04:19;11.38;;;3.80;;
52946;SDS011;45776;40.400;17.260;2022-11-03T04:06:45;11.18;;;4.25;;
52946;SDS011;45776;40.400;17.260;2022-11-03T04:09:11;8.02;;;4.13;;
52946;SDS011;45776;40.400;17.260;2022-11-03T04:11:36;8.15;;;3.85;;
52946;SDS011;45776;40.400;17.260;2022-11-03T04:14:20;12.73;;;4.05;;
52946;SDS011;45776;40.400;17.260;2022-11-03T04:17:04;7.78;;;4.13;;
52946;SDS011;45776;40.400;17.260;2022-11-03T04:19:57;9.00;;;3.78;;
52946;SDS011;45776;40.400;17.260;2022-11-03T04:22:41;6.75;;;3.63;;
52946;SDS011;45776;40.400;17.260;2022-11-03T04:25:07;11.70;;;3.88;;
52946;SDS011;45776;40.400;17.260;2022-11-03T04:27:33;10.55;;;4.15;;
52946;SDS011;45776;40.400;17.260;2022-11-03T04:30:16;9.27;;;3.42;;
52946;SDS011;45776;40.400;17.260;2022-11-03T04:32:44;13.38;;;4.15;;
52946;SDS011;45776;40.400;17.260;2022-11-03T04:37:50;9.60;;;3.78;;
52946;SDS011;45776;40.400;17.260;2022-11-03T04:40:20;9.73;;;4.38;;
52946;SDS011;45776;40.400;17.260;2022-11-03T04:42:46;10.10;;;4.20;;
52946;SDS011;45776;40.400;17.260;2022-11-03T04:47:43;12.93;;;4.80;;
52946;SDS011;45776;40.400;17.260;2022-11-03T04:50:14;7.93;;;4.00;;
52946;SDS011;45776;40.400;17.260;2022-11-03T04:52:42;11.57;;;3.70;;
52946;SDS011;45776;40.400;17.260;2022-11-03T04:55:12;10.13;;;4.43;;
52946;SDS011;45776;40.400;17.260;2022-11-03T04:57:40;9.30;;;3.90;;
52946;SDS011;45776;40.400;17.260;2022-11-03T05:00:09;10.48;;;4.50;;
52946;SDS011;45776;40.400;17.260;2022-11-03T05:02:39;11.48;;;4.30;;
52946;SDS011;45776;40.400;17.260;2022-11-03T05:05:14;10.20;;;4.45;;
52946;SDS011;45776;40.400;17.260;2022-11-03T05:07:43;13.98;;;4.57;;
52946;SDS011;45776;40.400;17.260;2022-11-03T05:10:14;12.45;;;4.53;;
52946;SDS011;45776;40.400;17.260;2022-11-03T05:12:41;10.13;;;4.60;;
52946;SDS011;45776;40.400;17.260;2022-11-03T05:15:08;10.07;;;3.67;;
52946;SDS011;45776;40.400;17.260;2022-11-03T05:17:57;9.65;;;3.70;;
52946;SDS011;45776;40.400;17.260;2022-11-03T05:20:31;8.93;;;4.22;;
52946;SDS011;45776;40.400;17.260;2022-11-03T05:23:01;13.00;;;4.00;;
52946;SDS011;45776;40.400;17.260;2022-11-03T05:25:41;9.77;;;4.13;;
52946;SDS011;45776;40.400;17.260;2022-11-03T05:30:49;11.98;;;4.80;;
52946;SDS011;45776;40.400;17.260;2022-11-03T05:33:17;8.70;;;4.35;;
52946;SDS011;45776;40.400;17.260;2022-11-03T05:35:44;11.55;;;4.53;;
52946;SDS011;45776;40.400;17.260;2022-11-03T05:38:11;11.35;;;5.57;;
52946;SDS011;45776;40.400;17.260;2022-11-03T05:40:39;12.68;;;5.07;;
52946;SDS011;45776;40.400;17.260;2022-11-03T05:43:07;11.82;;;5.07;;
52946;SDS011;45776;40.400;17.260;2022-11-03T05:45:34;11.65;;;5.20;;
52946;SDS011;45776;40.400;17.260;2022-11-03T05:48:02;14.13;;;4.72;;
52946;SDS011;45776;40.400;17.260;2022-11-03T05:50:35;14.90;;;4.90;;
52946;SDS011;45776;40.400;17.260;2022-11-03T05:55:52;13.95;;;5.20;;
52946;SDS011;45776;40.400;17.260;2022-11-03T06:00:59;14.32;;;5.57;;
52946;SDS011;45776;40.400;17.260;2022-11-03T06:03:29;10.73;;;5.22;;
52946;SDS011;45776;40.400;17.260;2022-11-03T06:05:58;15.48;;;5.43;;
52946;SDS011;45776;40.400;17.260;2022-11-03T06:08:27;17.55;;;5.32;;
52946;SDS011;45776;40.400;17.260;2022-11-03T06:10:59;14.95;;;5.53;;
52946;SDS011;45776;40.400;17.260;2022-11-03T06:13:34;17.90;;;5.38;;
52946;SDS011;45776;40.400;17.260;2022-11-03T06:18:42;22.35;;;6.03;;
52946;SDS011;45776;40.400;17.260;2022-11-03T06:21:10;12.05;;;5.18;;
52946;SDS011;45776;40.400;17.260;2022-11-03T06:23:40;24.10;;;5.60;;
52946;SDS011;45776;40.400;17.260;2022-11-03T06:26:20;15.35;;;4.75;;
52946;SDS011;45776;40.400;17.260;2022-11-03T06:28:48;18.67;;;5.38;;
52946;SDS011;45776;40.400;17.260;2022-11-03T06:31:20;12.40;;;5.95;;
52946;SDS011;45776;40.400;17.260;2022-11-03T06:33:53;18.88;;;6.63;;
52946;SDS011;45776;40.400;17.260;2022-11-03T06:36:25;13.57;;;6.35;;
52946;SDS011;45776;40.400;17.260;2022-11-03T06:39:02;14.02;;;6.63;;
52946;SDS011;45776;40.400;17.260;2022-11-03T06:41:34;20.38;;;7.18;;
52946;SDS011;45776;40.400;17.260;2022-11-03T06:44:01;20.35;;;6.20;;
52946;SDS011;45776;40.400;17.260;2022-11-03T06:46:39;22.88;;;6.57;;
52946;SDS011;45776;40.400;17.260;2022-11-03T06:49:15;14.18;;;7.22;;
52946;SDS011;45776;40.400;17.260;2022-11-03T06:51:51;16.20;;;6.05;;
52946;SDS011;45776;40.400;17.260;2022-11-03T06:54:16;16.60;;;5.18;;
52946;SDS011;45776;40.400;17.260;2022-11-03T06:56:42;19.02;;;5.32;;
52946;SDS011;45776;40.400;17.260;2022-11-03T06:59:08;14.52;;;5.18;;
52946;SDS011;45776;40.400;17.260;2022-11-03T07:01:35;15.23;;;4.85;;
52946;SDS011;45776;40.400;17.260;2022-11-03T07:04:02;15.15;;;5.70;;
52946;SDS011;45776;40.400;17.260;2022-11-03T07:06:37;15.18;;;5.07;;
52946;SDS011;45776;40.400;17.260;2022-11-03T07:09:03;14.95;;;5.75;;
52946;SDS011;45776;40.400;17.260;2022-11-03T07:11:33;16.20;;;5.82;;
52946;SDS011;45776;40.400;17.260;2022-11-03T07:14:11;17.90;;;5.45;;
52946;SDS011;45776;40.400;17.260;2022-11-03T07:16:41;10.32;;;5.10;;
52946;SDS011;45776;40.400;17.260;2022-11-03T07:21:58;11.80;;;4.45;;
52946;SDS011;45776;40.400;17.260;2022-11-03T07:24:45;11.00;;;4.45;;
52946;SDS011;45776;40.400;17.260;2022-11-03T07:27:27;20.65;;;5.38;;
52946;SDS011;45776;40.400;17.260;2022-11-03T07:32:47;15.55;;;4.35;;
52946;SDS011;45776;40.400;17.260;2022-11-03T07:38:00;14.63;;;5.50;;
52946;SDS011;45776;40.400;17.260;2022-11-03T07:40:28;16.13;;;5.07;;
52946;SDS011;45776;40.400;17.260;2022-11-03T07:42:57;12.35;;;5.13;;
52946;SDS011;45776;40.400;17.260;2022-11-03T07:53:17;19.98;;;8.35;;
52946;SDS011;45776;40.400;17.260;2022-11-03T07:55:46;21.27;;;9.07;;
52946;SDS011;45776;40.400;17.260;2022-11-03T07:58:22;20.10;;;8.55;;
52946;SDS011;45776;40.400;17.260;2022-11-03T08:00:55;20.13;;;7.72;;
52946;SDS011;45776;40.400;17.260;2022-11-03T08:03:35;21.17;;;8.23;;
52946;SDS011;45776;40.400;17.260;2022-11-03T08:06:08;19.08;;;7.30;;
52946;SDS011;45776;40.400;17.260;2022-11-03T08:08:33;13.98;;;6.50;;
52946;SDS011;45776;40.400;17.260;2022-11-03T08:10:59;13.13;;;5.93;;
52946;SDS011;45776;40.400;17.260;2022-11-03T08:13:24;12.13;;;6.10;;
52946;SDS011;45776;40.400;17.260;2022-11-03T08:15:50;12.68;;;5.28;;
52946;SDS011;45776;40.400;17.260;2022-11-03T08:18:15;14.90;;;4.97;;
52946;SDS011;45776;40.400;17.260;2022-11-03T08:20:43;10.05;;;4.53;;
52946;SDS011;45776;40.400;17.260;2022-11-03T08:23:09;13.23;;;4.80;;
52946;SDS011;45776;40.400;17.260;2022-11-03T08:25:36;9.27;;;4.40;;
52946;SDS011;45776;40.400;17.260;2022-11-03T08:28:01;11.25;;;4.05;;
52946;SDS011;45776;40.400;17.260;2022-11-03T08:30:30;10.48;;;4.63;;
52946;SDS011;45776;40.400;17.260;2022-11-03T08:32:59;14.23;;;4.70;;
52946;SDS011;45776;40.400;17.260;2022-11-03T08:35:25;17.50;;;5.10;;
52946;SDS011;45776;40.400;17.260;2022-11-03T08:37:50;8.60;;;4.00;;
52946;SDS011;45776;40.400;17.260;2022-11-03T08:40:16;16.85;;;4.32;;
52946;SDS011;45776;40.400;17.260;2022-11-03T08:42:42;9.05;;;4.22;;
52946;SDS011;45776;40.400;17.260;2022-11-03T08:45:08;7.95;;;4.05;;
52946;SDS011;45776;40.400;17.260;2022-11-03T08:47:35;7.68;;;4.10;;
52946;SDS011;45776;40.400;17.260;2022-11-03T08:50:01;7.70;;;3.92;;
52946;SDS011;45776;40.400;17.260;2022-11-03T08:52:26;14.07;;;4.20;;
52946;SDS011;45776;40.400;17.260;2022-11-03T08:54:51;10.45;;;3.95;;
52946;SDS011;45776;40.400;17.260;2022-11-03T08:57:17;12.15;;;4.15;;
52946;SDS011;45776;40.400;17.260;2022-11-03T08:59:42;8.23;;;3.50;;
52946;SDS011;45776;40.400;17.260;2022-11-03T09:02:08;7.97;;;3.30;;
52946;SDS011;45776;40.400;17.260;2022-11-03T09:04:33;9.38;;;3.95;;
52946;SDS011;45776;40.400;17.260;2022-11-03T09:06:59;12.20;;;4.40;;
52946;SDS011;45776;40.400;17.260;2022-11-03T09:09:24;9.65;;;3.85;;
52946;SDS011;45776;40.400;17.260;2022-11-03T09:11:50;8.77;;;3.20;;
52946;SDS011;45776;40.400;17.260;2022-11-03T09:14:15;9.23;;;3.30;;
52946;SDS011;45776;40.400;17.260;2022-11-03T09:16:41;8.07;;;3.70;;
52946;SDS011;45776;40.400;17.260;2022-11-03T09:19:06;5.55;;;3.15;;
52946;SDS011;45776;40.400;17.260;2022-11-03T09:21:32;10.57;;;3.80;;
52946;SDS011;45776;40.400;17.260;2022-11-03T09:23:57;8.82;;;3.65;;
52946;SDS011;45776;40.400;17.260;2022-11-03T09:26:24;9.20;;;3.20;;
52946;SDS011;45776;40.400;17.260;2022-11-03T09:28:50;8.93;;;2.70;;
52946;SDS011;45776;40.400;17.260;2022-11-03T09:31:16;6.50;;;3.17;;
52946;SDS011;45776;40.400;17.260;2022-11-03T09:33:43;9.15;;;3.72;;
52946;SDS011;45776;40.400;17.260;2022-11-03T09:36:09;11.45;;;3.75;;
52946;SDS011;45776;40.400;17.260;2022-11-03T09:38:34;9.20;;;3.50;;
52946;SDS011;45776;40.400;17.260;2022-11-03T09:41:00;9.27;;;3.38;;
52946;SDS011;45776;40.400;17.260;2022-11-03T09:43:27;8.65;;;3.20;;
52946;SDS011;45776;40.400;17.260;2022-11-03T09:45:53;10.55;;;3.10;;
52946;SDS011;45776;40.400;17.260;2022-11-03T09:48:18;7.15;;;3.60;;
52946;SDS011;45776;40.400;17.260;2022-11-03T09:50:46;9.90;;;3.63;;
52946;SDS011;45776;40.400;17.260;2022-11-03T09:53:15;12.98;;;4.07;;
52946;SDS011;45776;40.400;17.260;2022-11-03T09:55:44;8.23;;;3.22;;
52946;SDS011;45776;40.400;17.260;2022-11-03T09:58:11;7.88;;;3.20;;
52946;SDS011;45776;40.400;17.260;2022-11-03T10:00:39;13.75;;;4.35;;
52946;SDS011;45776;40.400;17.260;2022-11-03T10:03:05;7.25;;;3.33;;
52946;SDS011;45776;40.400;17.260;2022-11-03T10:05:33;8.82;;;3.45;;
52946;SDS011;45776;40.400;17.260;2022-11-03T10:08:04;8.68;;;3.83;;
52946;SDS011;45776;40.400;17.260;2022-11-03T10:10:32;13.32;;;3.63;;
52946;SDS011;45776;40.400;17.260;2022-11-03T10:12:59;12.52;;;3.40;;
52946;SDS011;45776;40.400;17.260;2022-11-03T10:15:25;12.23;;;3.70;;
52946;SDS011;45776;40.400;17.260;2022-11-03T10:17:52;12.88;;;3.42;;
52946;SDS011;45776;40.400;17.260;2022-11-03T10:20:21;15.23;;;4.53;;
52946;SDS011;45776;40.400;17.260;2022-11-03T10:22:49;10.73;;;3.10;;
52946;SDS011;45776;40.400;17.260;2022-11-03T10:28:15;7.35;;;3.03;;
52946;SDS011;45776;40.400;17.260;2022-11-03T10:35:52;10.95;;;3.47;;
52946;SDS011;45776;40.400;17.260;2022-11-03T10:38:24;6.57;;;2.20;;
52946;SDS011;45776;40.400;17.260;2022-11-03T10:40:55;9.25;;;2.50;;
52946;SDS011;45776;40.400;17.260;2022-11-03T10:43:35;8.60;;;2.50;;
52946;SDS011;45776;40.400;17.260;2022-11-03T10:46:09;8.57;;;2.47;;
52946;SDS011;45776;40.400;17.260;2022-11-03T10:48:51;5.25;;;2.22;;
52946;SDS011;45776;40.400;17.260;2022-11-03T10:51:26;4.53;;;2.20;;
52946;SDS011;45776;40.400;17.260;2022-11-03T10:53:53;7.95;;;2.45;;
52946;SDS011;45776;40.400;17.260;2022-11-03T10:56:19;6.35;;;2.42;;
52946;SDS011;45776;40.400;17.260;2022-11-03T10:58:44;8.40;;;2.33;;
52946;SDS011;45776;40.400;17.260;2022-11-03T11:01:10;6.05;;;2.60;;
52946;SDS011;45776;40.400;17.260;2022-11-03T11:03:38;5.50;;;2.60;;
52946;SDS011;45776;40.400;17.260;2022-11-03T11:06:23;7.53;;;2.60;;
52946;SDS011;45776;40.400;17.260;2022-11-03T11:08:52;7.05;;;2.70;;
52946;SDS011;45776;40.400;17.260;2022-11-03T11:11:21;4.20;;;2.75;;
52946;SDS011;45776;40.400;17.260;2022-11-03T11:17:00;7.43;;;2.83;;
52946;SDS011;45776;40.400;17.260;2022-11-03T11:19:27;7.75;;;2.92;;
52946;SDS011;45776;40.400;17.260;2022-11-03T11:29:56;6.03;;;4.05;;
52946;SDS011;45776;40.400;17.260;2022-11-03T11:35:10;7.35;;;3.88;;
52946;SDS011;45776;40.400;17.260;2022-11-03T11:37:41;9.32;;;4.00;;
52946;SDS011;45776;40.400;17.260;2022-11-03T11:40:52;12.63;;;3.60;;
52946;SDS011;45776;40.400;17.260;2022-11-03T11:48:41;8.02;;;3.88;;
52946;SDS011;45776;40.400;17.260;2022-11-03T11:51:07;8.45;;;3.25;;
52946;SDS011;45776;40.400;17.260;2022-11-03T11:53:38;5.97;;;3.33;;
52946;SDS011;45776;40.400;17.260;2022-11-03T11:56:09;8.43;;;3.17;;
52946;SDS011;45776;40.400;17.260;2022-11-03T11:58:47;8.15;;;2.95;;
52946;SDS011;45776;40.400;17.260;2022-11-03T12:03:46;11.50;;;2.92;;
52946;SDS011;45776;40.400;17.260;2022-11-03T12:06:12;8.05;;;2.80;;
52946;SDS011;45776;40.400;17.260;2022-11-03T12:08:37;9.38;;;2.95;;
52946;SDS011;45776;40.400;17.260;2022-11-03T12:11:04;5.53;;;3.15;;
52946;SDS011;45776;40.400;17.260;2022-11-03T12:22:04;8.57;;;3.00;;
52946;SDS011;45776;40.400;17.260;2022-11-03T12:27:00;12.13;;;3.22;;
52946;SDS011;45776;40.400;17.260;2022-11-03T12:29:27;12.23;;;2.42;;
52946;SDS011;45776;40.400;17.260;2022-11-03T12:31:53;5.18;;;2.55;;
52946;SDS011;45776;40.400;17.260;2022-11-03T12:34:18;8.60;;;3.03;;
52946;SDS011;45776;40.400;17.260;2022-11-03T12:36:44;6.80;;;2.60;;
52946;SDS011;45776;40.400;17.260;2022-11-03T12:39:09;6.97;;;2.80;;
52946;SDS011;45776;40.400;17.260;2022-11-03T12:41:35;7.10;;;2.90;;
52946;SDS011;45776;40.400;17.260;2022-11-03T12:44:01;6.57;;;3.00;;
52946;SDS011;45776;40.400;17.260;2022-11-03T12:46:26;5.95;;;2.70;;
52946;SDS011;45776;40.400;17.260;2022-11-03T12:48:52;7.85;;;2.80;;
52946;SDS011;45776;40.400;17.260;2022-11-03T12:51:19;11.05;;;2.90;;
52946;SDS011;45776;40.400;17.260;2022-11-03T12:53:46;6.32;;;2.90;;
52946;SDS011;45776;40.400;17.260;2022-11-03T12:56:12;8.75;;;2.65;;
52946;SDS011;45776;40.400;17.260;2022-11-03T12:58:38;4.20;;;2.80;;
52946;SDS011;45776;40.400;17.260;2022-11-03T13:01:04;8.02;;;2.95;;
52946;SDS011;45776;40.400;17.260;2022-11-03T13:03:30;7.75;;;2.90;;
52946;SDS011;45776;40.400;17.260;2022-11-03T13:05:57;9.77;;;3.53;;
52946;SDS011;45776;40.400;17.260;2022-11-03T13:08:22;7.38;;;2.80;;
52946;SDS011;45776;40.400;17.260;2022-11-03T13:10:48;6.30;;;3.00;;
52946;SDS011;45776;40.400;17.260;2022-11-03T13:13:14;9.13;;;2.88;;
52946;SDS011;45776;40.400;17.260;2022-11-03T13:15:40;6.82;;;2.70;;
52946;SDS011;45776;40.400;17.260;2022-11-03T13:18:05;5.88;;;2.92;;
52946;SDS011;45776;40.400;17.260;2022-11-03T13:20:32;7.13;;;2.90;;
52946;SDS011;45776;40.400;17.260;2022-11-03T13:22:58;8.40;;;3.03;;
52946;SDS011;45776;40.400;17.260;2022-11-03T13:25:23;4.97;;;2.85;;
52946;SDS011;45776;40.400;17.260;2022-11-03T13:27:49;6.63;;;2.90;;
52946;SDS011;45776;40.400;17.260;2022-11-03T13:30:18;5.65;;;2.83;;
52946;SDS011;45776;40.400;17.260;2022-11-03T13:32:44;10.00;;;3.35;;
52946;SDS011;45776;40.400;17.260;2022-11-03T13:35:09;7.90;;;3.08;;
52946;SDS011;45776;40.400;17.260;2022-11-03T13:37:35;4.75;;;2.63;;
52946;SDS011;45776;40.400;17.260;2022-11-03T13:40:00;6.35;;;2.72;;
52946;SDS011;45776;40.400;17.260;2022-11-03T13:42:26;6.50;;;2.97;;
52946;SDS011;45776;40.400;17.260;2022-11-03T13:44:51;8.52;;;3.20;;
52946;SDS011;45776;40.400;17.260;2022-11-03T13:47:17;7.72;;;2.72;;
52946;SDS011;45776;40.400;17.260;2022-11-03T13:49:42;6.30;;;2.70;;
52946;SDS011;45776;40.400;17.260;2022-11-03T13:52:08;4.72;;;2.85;;
52946;SDS011;45776;40.400;17.260;2022-11-03T13:54:33;7.88;;;2.92;;
52946;SDS011;45776;40.400;17.260;2022-11-03T13:56:59;6.63;;;2.75;;
52946;SDS011;45776;40.400;17.260;2022-11-03T13:59:24;9.73;;;3.13;;
52946;SDS011;45776;40.400;17.260;2022-11-03T14:01:50;7.68;;;3.40;;
52946;SDS011;45776;40.400;17.260;2022-11-03T14:04:15;6.55;;;3.28;;
52946;SDS011;45776;40.400;17.260;2022-11-03T14:06:41;6.97;;;3.03;;
52946;SDS011;45776;40.400;17.260;2022-11-03T14:09:06;8.52;;;2.95;;
52946;SDS011;45776;40.400;17.260;2022-11-03T14:11:32;6.43;;;2.70;;
52946;SDS011;45776;40.400;17.260;2022-11-03T14:14:16;9.07;;;3.30;;
52946;SDS011;45776;40.400;17.260;2022-11-03T14:16:41;6.60;;;2.85;;
52946;SDS011;45776;40.400;17.260;2022-11-03T14:19:07;7.65;;;3.38;;
52946;SDS011;45776;40.400;17.260;2022-11-03T14:21:32;11.70;;;3.55;;
52946;SDS011;45776;40.400;17.260;2022-11-03T14:23:58;6.50;;;2.95;;
52946;SDS011;45776;40.400;17.260;2022-11-03T14:26:23;7.65;;;3.10;;
52946;SDS011;45776;40.400;17.260;2022-11-03T14:28:48;6.78;;;3.17;;
52946;SDS011;45776;40.400;17.260;2022-11-03T14:31:14;5.20;;;2.88;;
52946;SDS011;45776;40.400;17.260;2022-11-03T14:33:39;7.80;;;3.40;;
52946;SDS011;45776;40.400;17.260;2022-11-03T14:36:05;7.75;;;3.60;;
52946;SDS011;45776;40.400;17.260;2022-11-03T14:38:30;4.97;;;2.95;;
52946;SDS011;45776;40.400;17.260;2022-11-03T14:40:56;10.95;;;3.47;;
52946;SDS011;45776;40.400;17.260;2022-11-03T14:43:40;7.95;;;3.17;;
52946;SDS011;45776;40.400;17.260;2022-11-03T14:46:06;8.13;;;3.13;;
52946;SDS011;45776;40.400;17.260;2022-11-03T14:48:31;5.40;;;3.10;;
52946;SDS011;45776;40.400;17.260;2022-11-03T14:50:57;5.90;;;3.30;;
52946;SDS011;45776;40.400;17.260;2022-11-03T14:53:22;10.88;;;3.10;;
52946;SDS011;45776;40.400;17.260;2022-11-03T14:55:48;7.40;;;2.70;;
52946;SDS011;45776;40.400;17.260;2022-11-03T14:58:13;10.38;;;3.63;;
52946;SDS011;45776;40.400;17.260;2022-11-03T15:00:39;8.30;;;3.42;;
52946;SDS011;45776;40.400;17.260;2022-11-03T15:03:07;7.78;;;3.05;;
52946;SDS011;45776;40.400;17.260;2022-11-03T15:05:33;5.57;;;3.47;;
52946;SDS011;45776;40.400;17.260;2022-11-03T15:08:11;7.38;;;3.20;;
52946;SDS011;45776;40.400;17.260;2022-11-03T15:10:37;14.38;;;3.40;;
52946;SDS011;45776;40.400;17.260;2022-11-03T15:13:03;6.60;;;3.33;;
52946;SDS011;45776;40.400;17.260;2022-11-03T15:15:28;7.97;;;3.45;;
52946;SDS011;45776;40.400;17.260;2022-11-03T15:17:54;5.65;;;3.13;;
52946;SDS011;45776;40.400;17.260;2022-11-03T15:20:19;9.50;;;3.40;;
52946;SDS011;45776;40.400;17.260;2022-11-03T15:22:45;7.40;;;3.30;;
52946;SDS011;45776;40.400;17.260;2022-11-03T15:25:10;6.85;;;3.35;;
52946;SDS011;45776;40.400;17.260;2022-11-03T15:27:36;7.03;;;3.53;;
52946;SDS011;45776;40.400;17.260;2022-11-03T15:30:03;6.13;;;3.20;;
52946;SDS011;45776;40.400;17.260;2022-11-03T15:32:32;11.30;;;3.25;;
52946;SDS011;45776;40.400;17.260;2022-11-03T15:34:57;10.43;;;3.75;;
52946;SDS011;45776;40.400;17.260;2022-11-03T15:37:23;10.48;;;3.40;;
52946;SDS011;45776;40.400;17.260;2022-11-03T15:39:49;7.80;;;3.15;;
52946;SDS011;45776;40.400;17.260;2022-11-03T15:42:15;6.15;;;3.10;;
52946;SDS011;45776;40.400;17.260;2022-11-03T15:44:41;9.48;;;3.05;;
52946;SDS011;45776;40.400;17.260;2022-11-03T15:47:06;9.05;;;3.95;;
52946;SDS011;45776;40.400;17.260;2022-11-03T15:49:31;12.07;;;4.25;;
52946;SDS011;45776;40.400;17.260;2022-11-03T15:51:57;6.63;;;3.13;;
52946;SDS011;45776;40.400;17.260;2022-11-03T15:54:22;10.32;;;3.80;;
52946;SDS011;45776;40.400;17.260;2022-11-03T15:56:48;8.07;;;3.50;;
52946;SDS011;45776;40.400;17.260;2022-11-03T15:59:14;6.70;;;3.72;;
52946;SDS011;45776;40.400;17.260;2022-11-03T16:01:39;9.70;;;3.83;;
52946;SDS011;45776;40.400;17.260;2022-11-03T16:04:05;9.40;;;3.42;;
52946;SDS011;45776;40.400;17.260;2022-11-03T16:06:30;8.68;;;2.85;;
52946;SDS011;45776;40.400;17.260;2022-11-03T16:08:56;7.55;;;3.08;;
52946;SDS011;45776;40.400;17.260;2022-11-03T16:11:22;6.05;;;2.83;;
52946;SDS011;45776;40.400;17.260;2022-11-03T16:13:47;7.78;;;3.22;;
52946;SDS011;45776;40.400;17.260;2022-11-03T16:16:12;10.18;;;2.92;;